Time;durP1;ratioP1;P1;durP2;ratioP2;P2;SDS_P1;SDS_P2;PMS_P1;PMS_P2;Temp;Humidity;BMP_temperature;BMP_pressure;BME280_temperature;BME280_humidity;BME280_pressure;Samples;Min_cycle;Max_cycle;Signal;HPM_P1;HPM_P2
2023/07/21 00:01:48;;;;;;;0.10;0.10;;;;;;;24.12;62.91;100835.38;4997917;28;20087;-88
2023/07/21 00:04:14;;;;;;;0.10;0.10;;;;;;;24.19;62.46;100846.97;4997457;28;20033;-88
2023/07/21 00:06:43;;;;;;;0.10;0.10;;;;;;;24.11;62.98;100848.75;4997907;28;20040;-88
2023/07/21 00:09:09;;;;;;;0.10;0.10;;;;;;;24.03;62.74;100815.16;5013558;28;20026;-88
2023/07/21 00:11:34;;;;;;;0.10;0.10;;;;;;;24.15;63.30;100835.03;4997504;28;20037;-89
2023/07/21 00:14:00;;;;;;;0.10;0.10;;;;;;;24.06;63.68;100833.34;4997693;28;20030;-88
2023/07/21 00:16:27;;;;;;;0.10;0.10;;;;;;;24.06;63.69;100832.50;4997440;28;20483;-87
2023/07/21 00:18:52;;;;;;;0.10;0.10;;;;;;;23.98;64.05;100835.94;5014063;28;20021;-88
2023/07/21 00:21:19;;;;;;;0.20;0.20;;;;;;;23.90;64.67;100826.19;4997502;28;20029;-89
2023/07/21 00:23:44;;;;;;;0.10;0.10;;;;;;;23.83;64.89;100845.44;4997229;28;20025;-88
2023/07/21 00:26:13;;;;;;;0.10;0.10;;;;;;;23.75;64.55;100817.97;4997634;28;20022;-87
2023/07/21 00:28:39;;;;;;;0.10;0.10;;;;;;;23.75;65.10;100827.72;5014069;28;20036;-89
2023/07/21 00:31:04;;;;;;;0.20;0.20;;;;;;;23.75;65.05;100827.72;4981244;28;20029;-88
2023/07/21 00:33:30;;;;;;;0.10;0.10;;;;;;;23.85;64.88;100838.19;5013872;28;20060;-88
2023/07/21 00:35:57;;;;;;;0.10;0.10;;;;;;;23.68;65.56;100822.22;4997392;28;20025;-88
2023/07/21 00:38:22;;;;;;;0.20;0.20;;;;;;;23.78;65.37;100831.84;4996706;28;20025;-87
2023/07/21 00:40:48;;;;;;;0.20;0.20;;;;;;;23.81;65.29;100836.84;5013553;28;20060;-89
2023/07/21 00:43:15;;;;;;;0.17;0.17;;;;;;;23.89;65.14;100834.22;4996938;28;20584;-88
2023/07/21 00:45:40;;;;;;;0.10;0.10;;;;;;;23.85;64.68;100820.50;4981358;28;20532;-88
2023/07/21 00:48:07;;;;;;;0.10;0.10;;;;;;;23.77;65.02;100824.91;4996754;28;20037;-87
2023/07/21 00:50:53;;;;;;;0.20;0.20;;;;;;;23.70;65.24;100833.47;4997568;28;20517;-88
2023/07/21 00:53:19;;;;;;;0.13;0.13;;;;;;;23.72;65.68;100826.22;4998592;28;20124;-87
2023/07/21 00:55:47;;;;;;;0.10;0.10;;;;;;;23.80;65.82;100821.97;4997028;28;20040;-88
2023/07/21 00:58:13;;;;;;;0.10;0.10;;;;;;;23.93;65.03;100814.47;4997720;28;20022;-90
2023/07/21 01:00:39;;;;;;;0.10;0.10;;;;;;;23.73;64.88;100804.09;4980817;28;20032;-87
2023/07/21 01:03:05;;;;;;;0.20;0.20;;;;;;;23.75;65.14;100815.34;4980552;28;20458;-88
2023/07/21 01:05:32;;;;;;;0.10;0.10;;;;;;;23.71;65.46;100815.81;4997024;28;20026;-89
2023/07/21 01:07:58;;;;;;;0.10;0.10;;;;;;;23.63;65.52;100813.94;5012585;28;20494;-87
2023/07/21 01:10:24;;;;;;;0.10;0.10;;;;;;;23.58;65.57;100810.06;4996895;28;20415;-87
2023/07/21 01:12:49;;;;;;;0.10;0.10;;;;;;;23.64;65.92;100802.41;4996622;28;20033;-87
2023/07/21 01:15:15;;;;;;;0.20;0.20;;;;;;;23.62;66.90;100811.47;4996482;28;20454;-88
2023/07/21 01:17:41;;;;;;;0.10;0.10;;;;;;;23.67;66.30;100809.16;5012883;28;20483;-88
2023/07/21 01:20:08;;;;;;;0.10;0.10;;;;;;;23.84;65.55;100825.97;4996795;28;20030;-88
2023/07/21 01:22:44;;;;;;;0.10;0.10;;;;;;;23.84;65.26;100818.88;4996973;28;20122;-87
2023/07/21 01:25:11;;;;;;;0.10;0.10;;;;;;;23.85;64.98;100811.75;4997209;28;20124;-87
2023/07/21 01:27:39;;;;;;;0.10;0.10;;;;;;;23.75;65.41;100807.41;4996738;28;20562;-87
2023/07/21 01:30:07;;;;;;;0.10;0.10;;;;;;;23.79;65.65;100809.72;4980845;28;20032;-87
2023/07/21 01:32:36;;;;;;;0.10;0.10;;;;;;;23.76;65.53;100818.81;4980385;28;20091;-88
2023/07/21 01:35:01;;;;;;;0.13;0.13;;;;;;;23.75;65.01;100815.34;5012702;28;20470;-88
2023/07/21 01:37:27;;;;;;;0.20;0.20;;;;;;;23.68;64.96;100795.81;4996555;28;20061;-87
2023/07/21 01:39:53;;;;;;;0.10;0.10;;;;;;;23.67;64.84;100807.34;5000206;28;20414;-89
2023/07/21 01:42:19;;;;;;;0.10;0.10;;;;;;;23.62;65.53;100812.28;5000405;28;20061;-87
2023/07/21 01:44:44;;;;;;;0.20;0.20;;;;;;;23.48;66.05;100811.00;5000635;28;20039;-88
2023/07/21 01:47:10;;;;;;;0.10;0.10;;;;;;;23.74;65.62;100831.34;5016678;28;20493;-88
2023/07/21 01:49:36;;;;;;;0.10;0.10;;;;;;;23.60;65.84;100813.44;4983780;28;20045;-89
2023/07/21 01:52:01;;;;;;;0.10;0.10;;;;;;;23.62;65.54;100812.28;5000549;28;20033;-88
2023/07/21 01:54:27;;;;;;;0.10;0.10;;;;;;;23.71;65.57;100827.22;5000134;28;20032;-89
2023/07/21 01:56:56;;;;;;;0.10;0.10;;;;;;;23.63;65.27;100807.84;5034184;28;20027;-88
2023/07/21 01:59:21;;;;;;;0.10;0.10;;;;;;;23.65;65.72;100821.72;4984122;28;20030;-88
2023/07/21 02:01:47;;;;;;;0.10;0.10;;;;;;;23.60;66.17;100813.44;5016177;28;20048;-89
2023/07/21 02:04:13;;;;;;;0.20;0.20;;;;;;;23.60;65.61;100797.59;4999745;28;20025;-87
2023/07/21 02:06:39;;;;;;;0.10;0.10;;;;;;;23.64;64.91;100791.84;5016152;28;20080;-87
2023/07/21 02:09:05;;;;;;;0.20;0.20;;;;;;;23.87;65.09;100815.06;4999784;28;20029;-90
2023/07/21 02:11:30;;;;;;;0.20;0.20;;;;;;;23.85;64.86;100811.75;4983589;28;20038;-88
2023/07/21 02:13:57;;;;;;;0.10;0.10;;;;;;;23.92;64.63;100807.50;4983523;28;20083;-88
2023/07/21 02:16:22;;;;;;;0.10;0.10;;;;;;;23.85;65.06;100807.31;4983470;28;20037;-88
2023/07/21 02:18:48;;;;;;;0.10;0.10;;;;;;;23.90;64.40;100805.03;4999312;28;20021;-88
2023/07/21 02:21:13;;;;;;;0.10;0.10;;;;;;;23.92;64.39;100802.22;4983399;28;20033;-88
2023/07/21 02:23:38;;;;;;;0.10;0.10;;;;;;;23.91;64.02;100811.97;4999702;28;20030;-88
2023/07/21 02:26:04;;;;;;;0.20;0.20;;;;;;;23.79;64.32;100810.56;4999827;28;20029;-87
2023/07/21 02:28:29;;;;;;;0.10;0.10;;;;;;;23.82;64.56;100806.81;5015536;28;20034;-88
2023/07/21 02:31:03;;;;;;;0.10;0.10;;;;;;;23.83;64.64;100824.31;4999686;28;20033;-88
2023/07/21 02:33:33;;;;;;;0.10;0.10;;;;;;;23.80;64.37;100830.75;4983298;28;20469;-87
2023/07/21 02:36:00;;;;;;;0.10;0.10;;;;;;;23.79;65.06;100836.16;5015804;28;20095;-88
2023/07/21 02:38:26;;;;;;;0.10;0.10;;;;;;;23.71;65.16;100847.50;4983305;28;20499;-87
2023/07/21 02:40:51;;;;;;;0.10;0.10;;;;;;;23.71;65.22;100850.97;4999281;28;20168;-88
2023/07/21 02:43:17;;;;;;;0.10;0.10;;;;;;;23.60;65.57;100858.34;4999166;28;20049;-88
2023/07/21 02:45:53;;;;;;;0.20;0.20;;;;;;;23.52;66.10;100866.16;4983070;28;20022;-88
2023/07/21 02:48:19;;;;;;;0.10;0.10;;;;;;;23.41;66.32;100865.41;4999373;28;20044;-88
2023/07/21 02:50:47;;;;;;;0.10;0.10;;;;;;;23.32;66.66;100858.41;4997894;28;20033;-88
2023/07/21 02:53:13;;;;;;;0.10;0.10;;;;;;;23.22;66.60;100843.63;4999337;28;20040;-89
2023/07/21 02:55:38;;;;;;;0.10;0.10;;;;;;;23.15;67.44;100857.41;5015474;28;20033;-88
2023/07/21 02:58:04;;;;;;;0.10;0.10;;;;;;;23.10;68.03;100862.31;4998966;28;20029;-89
2023/07/21 03:00:29;;;;;;;0.10;0.10;;;;;;;23.00;67.75;100837.78;4982671;28;20487;-87
2023/07/21 03:02:54;;;;;;;0.10;0.10;;;;;;;23.04;68.09;100855.00;5015337;28;20032;-91
2023/07/21 03:05:20;;;;;;;0.10;0.10;;;;;;;23.09;67.11;100862.44;4983133;28;20092;-89
2023/07/21 03:07:46;;;;;;;0.10;0.10;;;;;;;23.37;64.82;100863.22;4982986;28;20057;-88
2023/07/21 03:10:12;;;;;;;0.10;0.10;;;;;;;23.82;62.70;100857.00;4998626;28;20103;-89
2023/07/21 03:12:37;;;;;;;0.10;0.10;;;;;;;24.48;60.13;100851.06;4998812;28;20029;-88
2023/07/21 03:15:04;;;;;;;0.20;0.20;;;;;;;24.96;58.92;100865.44;4998629;28;20043;-88
2023/07/21 03:17:30;;;;;;;0.10;0.10;;;;;;;24.81;59.88;100842.25;4998706;28;20033;-88
2023/07/21 03:19:55;;;;;;;0.10;0.10;;;;;;;24.64;61.14;100855.59;4998945;28;20025;-89
2023/07/21 03:22:21;;;;;;;0.10;0.10;;;;;;;24.47;61.29;100846.78;4982401;28;20033;-88
2023/07/21 03:24:46;;;;;;;0.10;0.10;;;;;;;24.52;60.70;100852.41;4998325;28;20030;-88
2023/07/21 03:27:12;;;;;;;0.17;0.17;;;;;;;24.68;60.88;100860.41;5015101;28;20510;-89
2023/07/21 03:29:38;;;;;;;0.10;0.10;;;;;;;24.58;61.77;100872.91;5032103;28;20498;-89
2023/07/21 03:32:04;;;;;;;0.17;0.17;;;;;;;24.34;62.14;100856.97;4981941;28;20037;-89
2023/07/21 03:34:29;;;;;;;0.17;0.17;;;;;;;24.26;62.52;100858.56;4998737;28;20021;-89
2023/07/21 03:36:55;;;;;;;0.10;0.10;;;;;;;24.30;62.34;100856.44;4982071;28;20541;-89
2023/07/21 03:39:23;;;;;;;0.10;0.10;;;;;;;24.70;60.91;100861.09;4985430;28;20223;-85
2023/07/21 03:41:49;;;;;;;0.10;0.10;;;;;;;25.01;60.06;100863.97;4960171;28;20065;-88
2023/07/21 03:44:14;;;;;;;0.10;0.10;;;;;;;24.79;60.64;100862.75;4959198;28;20032;-86
2023/07/21 03:46:40;;;;;;;0.10;0.10;;;;;;;24.69;61.17;100864.72;4942982;28;20030;-86
2023/07/21 03:49:05;;;;;;;0.10;0.10;;;;;;;24.53;62.20;100872.59;4975174;28;20038;-87
2023/07/21 03:51:31;;;;;;;0.10;0.10;;;;;;;24.23;62.91;100874.75;4943019;28;20037;-86
2023/07/21 03:53:58;;;;;;;0.10;0.10;;;;;;;24.07;63.20;100872.00;4958806;28;20034;-86
2023/07/21 03:56:25;;;;;;;0.20;0.20;;;;;;;24.12;63.30;100890.03;4959190;28;20038;-86
2023/07/21 03:58:50;;;;;;;0.17;0.17;;;;;;;23.77;64.35;100869.81;4958999;28;20033;-87
2023/07/21 04:01:16;;;;;;;0.20;0.20;;;;;;;23.75;64.71;100891.94;4958457;28;20035;-88
2023/07/21 04:03:41;;;;;;;0.10;0.10;;;;;;;23.73;64.71;100888.63;4942544;28;20089;-86
2023/07/21 04:06:07;;;;;;;0.10;0.10;;;;;;;23.72;65.08;100902.81;4958593;28;20030;-86
2023/07/21 04:08:34;;;;;;;0.10;0.10;;;;;;;23.80;64.52;100903.88;4958610;28;20022;-87
2023/07/21 04:10:59;;;;;;;0.10;0.10;;;;;;;23.77;64.56;100894.44;4970733;28;20026;-88
2023/07/21 04:13:25;;;;;;;0.20;0.20;;;;;;;23.73;65.01;100896.56;4992581;28;20399;-87
2023/07/21 04:15:51;;;;;;;0.10;0.10;;;;;;;23.75;65.07;100902.50;4992450;28;20022;-87
2023/07/21 04:18:17;;;;;;;0.20;0.20;;;;;;;23.95;63.90;100884.66;4994153;28;20080;-86
2023/07/21 04:20:42;;;;;;;0.20;0.20;;;;;;;24.28;63.30;100896.22;4976401;28;20034;-86
2023/07/21 04:23:09;;;;;;;0.20;0.20;;;;;;;24.25;63.10;100890.44;4993130;28;20037;-84
2023/07/21 04:25:35;;;;;;;0.10;0.10;;;;;;;24.29;63.22;100887.34;4990419;28;20027;-86
2023/07/21 04:28:01;;;;;;;0.10;0.10;;;;;;;24.00;63.18;100868.34;4969603;28;20060;-91
2023/07/21 04:30:26;;;;;;;0.10;0.10;;;;;;;24.27;63.10;100902.50;5000003;28;20492;-89
2023/07/21 04:32:52;;;;;;;0.10;0.10;;;;;;;24.21;63.44;100900.50;4993650;28;20026;-92
2023/07/21 04:35:17;;;;;;;0.10;0.10;;;;;;;24.28;63.25;100903.34;4960744;28;20034;-92
2023/07/21 04:37:43;;;;;;;0.20;0.20;;;;;;;24.25;63.18;100906.28;4962218;28;20022;-92
2023/07/21 04:40:11;;;;;;;0.10;0.10;;;;;;;24.20;63.58;100921.81;4938178;28;20062;-87
2023/07/21 04:42:37;;;;;;;0.10;0.10;;;;;;;24.13;63.91;100913.66;5000348;28;20511;-87
2023/07/21 04:45:04;;;;;;;0.10;0.10;;;;;;;24.13;63.54;100907.56;5004406;28;20501;-92
2023/07/21 04:47:30;;;;;;;0.10;0.10;;;;;;;23.99;63.74;100903.66;4994387;28;20038;-89
2023/07/21 04:49:55;;;;;;;0.10;0.10;;;;;;;24.06;64.27;100917.91;4984630;28;20084;-89
2023/07/21 04:52:21;;;;;;;0.10;0.10;;;;;;;24.06;64.45;100911.78;5012967;28;20033;-92
2023/07/21 04:54:47;;;;;;;0.10;0.10;;;;;;;23.95;64.96;100919.00;5003082;28;20447;-93
2023/07/21 04:57:12;;;;;;;0.10;0.10;;;;;;;23.85;64.71;100898.94;4997705;28;20095;-88
2023/07/21 04:59:38;;;;;;;0.10;0.10;;;;;;;24.07;64.80;100922.22;4998328;28;20033;-91
2023/07/21 05:02:04;;;;;;;0.10;0.10;;;;;;;23.84;65.23;100905.22;5012648;28;20042;-88
2023/07/21 05:04:29;;;;;;;0.10;0.10;;;;;;;23.93;65.51;100920.16;4988577;28;20022;-94
2023/07/21 05:06:55;;;;;;;0.10;0.10;;;;;;;23.97;65.49;100927.59;4996104;28;20063;-91
2023/07/21 05:09:20;;;;;;;0.20;0.20;;;;;;;23.93;66.05;100893.72;4995058;28;20080;-89
2023/07/21 05:11:46;;;;;;;0.10;0.10;;;;;;;24.15;65.17;100898.47;4992765;28;20033;-91
2023/07/21 05:14:12;;;;;;;0.10;0.10;;;;;;;24.34;64.19;100912.50;5013004;28;20510;-90
2023/07/21 05:16:37;;;;;;;0.10;0.10;;;;;;;24.34;63.18;100913.31;5013472;28;20056;-89
2023/07/21 05:19:04;;;;;;;0.10;0.10;;;;;;;24.37;63.33;100918.28;4998757;28;20036;-91
2023/07/21 05:21:29;;;;;;;0.10;0.10;;;;;;;24.46;63.70;100917.34;4996528;28;20033;-88
2023/07/21 05:23:55;;;;;;;0.10;0.10;;;;;;;24.55;62.87;100919.03;5012187;28;20029;-91
2023/07/21 05:26:21;;;;;;;0.10;0.10;;;;;;;24.62;63.92;100907.84;4982221;28;20388;-89
2023/07/21 05:28:47;;;;;;;0.10;0.10;;;;;;;24.85;62.88;100915.03;5012715;28;20034;-91
2023/07/21 05:31:13;;;;;;;0.10;0.10;;;;;;;24.88;62.08;100905.94;5003544;28;20022;-93
2023/07/21 05:33:39;;;;;;;0.10;0.10;;;;;;;25.07;62.33;100905.69;5013269;28;20033;-94
2023/07/21 05:36:07;;;;;;;0.10;0.10;;;;;;;25.24;61.58;100901.25;5032269;28;20108;-90
2023/07/21 05:38:34;;;;;;;0.10;0.10;;;;;;;25.59;60.46;100915.19;5016662;28;20064;-93
2023/07/21 05:41:03;;;;;;;0.10;0.10;;;;;;;25.74;59.22;100914.38;5000199;28;20057;-92
2023/07/21 05:43:29;;;;;;;0.10;0.10;;;;;;;25.92;59.01;100911.53;5016140;23;20053;-91
2023/07/21 05:45:55;;;;;;;0.10;0.10;;;;;;;26.14;56.74;100909.19;5011683;28;20042;-88
2023/07/21 05:48:21;;;;;;;0.10;0.10;;;;;;;25.97;58.04;100900.44;5009818;28;20053;-89
2023/07/21 05:50:46;;;;;;;0.10;0.10;;;;;;;26.18;56.41;100916.63;5013084;28;20034;-88
2023/07/21 05:53:12;;;;;;;0.20;0.20;;;;;;;26.12;55.93;100900.56;5010156;28;20029;-88
2023/07/21 05:55:41;;;;;;;0.10;0.10;;;;;;;26.07;57.05;100924.97;4993116;28;20037;-92
2023/07/21 05:58:08;;;;;;;0.10;0.10;;;;;;;25.99;57.54;100912.53;4987033;28;20061;-87
2023/07/21 06:00:36;;;;;;;0.20;0.20;;;;;;;26.15;57.22;100926.75;5002858;28;20030;-87
2023/07/21 06:03:03;;;;;;;0.10;0.10;;;;;;;26.18;56.31;100914.00;4982412;28;20492;-92
2023/07/21 06:05:29;;;;;;;0.10;0.10;;;;;;;26.10;57.48;100907.88;5002155;28;20120;-89
2023/07/21 06:07:55;;;;;;;0.10;0.10;;;;;;;26.24;57.93;100904.50;4998959;28;20021;-89
2023/07/21 06:10:21;;;;;;;0.10;0.10;;;;;;;26.39;57.63;100907.31;4978752;28;20029;-92
2023/07/21 06:12:46;;;;;;;0.10;0.10;;;;;;;26.52;57.10;100915.56;4996706;28;20025;-92
2023/07/21 06:15:12;;;;;;;0.20;0.20;;;;;;;26.44;58.34;100924.38;4976177;28;20030;-88
2023/07/21 06:17:38;;;;;;;0.20;0.20;;;;;;;26.39;58.18;100913.47;4990210;28;20037;-88
2023/07/21 06:20:06;;;;;;;0.10;0.10;;;;;;;26.42;58.89;100899.84;5034605;28;20026;-94
2023/07/21 06:22:32;;;;;;;0.20;0.20;;;;;;;26.41;58.55;100911.47;5005691;28;20028;-94
2023/07/21 06:24:58;;;;;;;0.10;0.10;;;;;;;26.49;58.68;100914.09;4987685;28;20482;-91
2023/07/21 06:27:25;;;;;;;0.10;0.10;;;;;;;26.61;58.08;100895.13;5013770;28;20030;-93
2023/07/21 06:29:51;;;;;;;0.20;0.20;;;;;;;26.68;58.21;100906.72;5009305;28;20091;-91
2023/07/21 06:32:17;;;;;;;0.15;0.15;;;;;;;26.75;57.51;100913.00;5014554;28;20432;-93
2023/07/21 06:35:03;;;;;;;0.10;0.10;;;;;;;26.74;57.92;100900.69;5035694;28;20037;-89
2023/07/21 06:37:30;;;;;;;0.10;0.10;;;;;;;26.72;58.37;100903.53;5005561;28;20042;-94
2023/07/21 06:39:56;;;;;;;0.10;0.10;;;;;;;26.70;57.88;100886.97;4979306;28;20046;-90
2023/07/21 06:42:22;;;;;;;0.10;0.10;;;;;;;27.04;56.98;100907.88;5000778;28;20468;-89
2023/07/21 06:44:47;;;;;;;0.10;0.10;;;;;;;26.90;57.42;100882.03;4994879;28;20065;-89
2023/07/21 06:47:14;;;;;;;0.10;0.10;;;;;;;26.97;58.30;100900.75;4995277;28;20427;-92
2023/07/21 06:49:58;;;;;;;0.20;0.20;;;;;;;27.04;58.39;100902.56;5003569;28;20164;-92
2023/07/21 06:52:24;;;;;;;0.20;0.20;;;;;;;27.29;57.07;100915.69;5001718;28;20030;-91
2023/07/21 06:54:49;;;;;;;0.20;0.20;;;;;;;27.32;58.29;100918.78;5005632;28;20117;-92
2023/07/21 06:57:15;;;;;;;0.10;0.10;;;;;;;27.31;57.18;100922.47;5011527;28;20032;-89
2023/07/21 06:59:41;;;;;;;0.17;0.17;;;;;;;27.46;57.52;100927.03;5016687;28;20030;-89
2023/07/21 07:02:08;;;;;;;0.13;0.13;;;;;;;27.35;56.86;100921.13;5019770;28;20033;-91
2023/07/21 07:04:34;;;;;;;0.10;0.10;;;;;;;27.39;55.80;100932.22;5032204;28;20172;-89
2023/07/21 07:07:00;;;;;;;0.10;0.10;;;;;;;27.44;56.05;100935.19;5026692;28;20029;-92
2023/07/21 07:09:25;;;;;;;0.13;0.13;;;;;;;27.61;56.01;100931.38;5014734;28;20530;-90
2023/07/21 07:11:51;;;;;;;0.20;0.20;;;;;;;27.77;54.13;100924.31;4996398;28;20030;-90
2023/07/21 07:14:18;;;;;;;0.10;0.10;;;;;;;27.98;53.99;100938.56;4996385;28;20109;-92
2023/07/21 07:16:44;;;;;;;0.10;0.10;;;;;;;28.28;53.75;100936.78;5001390;28;20030;-91
2023/07/21 07:19:10;;;;;;;0.20;0.20;;;;;;;28.44;52.43;100937.63;4991225;28;20041;-90
2023/07/21 07:21:36;;;;;;;0.10;0.10;;;;;;;28.54;52.79;100928.34;5013753;28;20030;-90
2023/07/21 07:24:03;;;;;;;0.20;0.20;;;;;;;28.46;53.16;100925.75;5023371;28;20531;-94
2023/07/21 07:26:30;;;;;;;0.20;0.20;;;;;;;28.58;53.94;100928.78;5023865;28;20037;-91
2023/07/21 07:28:56;;;;;;;0.13;0.13;;;;;;;28.62;52.76;100914.09;5010071;28;20132;-86
2023/07/21 07:31:21;;;;;;;0.10;0.10;;;;;;;28.60;52.26;100929.41;4995041;28;20480;-90
2023/07/21 07:33:47;;;;;;;0.20;0.20;;;;;;;28.52;52.75;100932.19;4998310;28;20032;-90
2023/07/21 07:36:12;;;;;;;0.20;0.20;;;;;;;28.53;52.36;100931.19;4997855;28;20471;-91
2023/07/21 07:38:38;;;;;;;0.10;0.10;;;;;;;28.54;51.92;100925.69;4979442;28;20018;-90
2023/07/21 07:41:05;;;;;;;0.20;0.20;;;;;;;28.67;51.65;100927.66;4956045;28;20088;-86
2023/07/21 07:43:32;;;;;;;0.20;0.20;;;;;;;28.69;51.97;100924.81;5007824;28;20096;-92
2023/07/21 07:45:57;;;;;;;0.20;0.20;;;;;;;28.81;51.15;100924.16;5018114;28;20114;-86
2023/07/21 07:48:23;;;;;;;0.10;0.10;;;;;;;28.79;51.00;100899.53;5033789;28;20473;-85
2023/07/21 07:50:51;;;;;;;0.10;0.10;;;;;;;28.97;50.45;100923.13;5034903;28;20479;-93
2023/07/21 07:53:16;;;;;;;0.20;0.20;;;;;;;29.08;50.57;100913.81;5001581;28;20037;-90
2023/07/21 07:55:42;;;;;;;0.10;0.10;;;;;;;29.16;49.32;100919.03;5014264;28;20481;-89
2023/07/21 07:58:08;;;;;;;0.13;0.13;;;;;;;29.20;48.54;100896.31;4994701;28;20034;-89
2023/07/21 08:00:38;;;;;;;0.10;0.10;;;;;;;29.39;48.16;100908.19;5012261;28;20028;-89
2023/07/21 08:03:04;;;;;;;0.10;0.10;;;;;;;29.59;47.15;100911.88;5010348;28;20124;-92
2023/07/21 08:05:30;;;;;;;0.20;0.20;;;;;;;29.64;45.80;100914.81;4997433;28;20061;-87
2023/07/21 08:07:58;;;;;;;0.10;0.10;;;;;;;29.77;44.97;100919.41;5027789;28;20083;-86
2023/07/21 08:10:27;;;;;;;0.10;0.10;;;;;;;29.89;45.41;100917.03;4996279;28;20036;-88
2023/07/21 08:12:53;;;;;;;0.20;0.20;;;;;;;29.93;46.51;100907.63;5006911;28;20124;-86
2023/07/21 08:15:20;;;;;;;0.20;0.20;;;;;;;30.06;45.73;100917.56;5001488;28;20030;-94
2023/07/21 08:17:46;;;;;;;0.20;0.20;;;;;;;29.88;45.33;100888.72;4979078;28;20407;-90
2023/07/21 08:20:11;;;;;;;0.20;0.20;;;;;;;30.20;45.50;100927.34;5022574;28;20048;-90
2023/07/21 08:22:37;;;;;;;0.20;0.20;;;;;;;30.19;46.90;100917.69;5021003;28;20025;-93
2023/07/21 08:25:05;;;;;;;0.20;0.20;;;;;;;30.37;46.90;100915.31;5032557;28;20078;-87
2023/07/21 08:27:33;;;;;;;0.20;0.20;;;;;;;30.54;45.59;100919.31;5038059;28;20053;-91
2023/07/21 08:30:00;;;;;;;0.10;0.10;;;;;;;30.47;45.06;100907.75;4998155;28;20025;-87
2023/07/21 08:32:26;;;;;;;0.20;0.20;;;;;;;30.59;44.95;100920.56;5034278;28;20112;-90
2023/07/21 08:34:52;;;;;;;0.20;0.20;;;;;;;30.77;43.19;100915.50;4995976;28;20088;-88
2023/07/21 08:37:17;;;;;;;0.10;0.10;;;;;;;30.98;44.17;100918.06;5005251;28;20025;-89
2023/07/21 08:39:43;;;;;;;0.20;0.20;;;;;;;31.12;40.69;100911.72;4992713;28;20550;-84
2023/07/21 08:42:11;;;;;;;0.15;0.15;;;;;;;31.13;41.03;100916.03;4987515;28;20055;-83
2023/07/21 08:44:37;;;;;;;0.17;0.17;;;;;;;31.18;42.02;100914.59;5033590;28;20021;-89
2023/07/21 08:47:03;;;;;;;0.20;0.20;;;;;;;30.97;42.29;100921.72;5015354;28;20059;-87
2023/07/21 08:49:28;;;;;;;0.20;0.20;;;;;;;30.80;42.11;100915.13;5044283;28;20029;-88
2023/07/21 08:51:54;;;;;;;0.10;0.10;;;;;;;30.82;42.62;100918.41;5025703;28;20029;-87
2023/07/21 08:54:19;;;;;;;0.20;0.20;;;;;;;31.01;41.08;100911.47;5024632;28;20048;-90
2023/07/21 08:56:44;;;;;;;0.20;0.20;;;;;;;31.15;41.94;100896.28;5033108;28;20033;-88
2023/07/21 08:59:10;;;;;;;0.20;0.20;;;;;;;31.31;41.23;100911.97;5013028;28;20519;-90
2023/07/21 09:01:35;;;;;;;0.20;0.20;;;;;;;31.33;41.82;100900.03;5013793;28;20025;-86
2023/07/21 09:04:01;;;;;;;0.20;0.20;;;;;;;31.28;40.37;100907.06;5013359;28;20029;-88
2023/07/21 09:06:26;;;;;;;0.20;0.20;;;;;;;31.29;41.11;100908.69;5019151;28;20036;-88
2023/07/21 09:08:53;;;;;;;0.20;0.20;;;;;;;31.40;39.52;100900.88;5004570;28;20034;-88
2023/07/21 09:11:18;;;;;;;0.13;0.13;;;;;;;31.37;39.79;100890.59;5020587;28;20031;-87
2023/07/21 09:14:04;;;;;;;0.20;0.20;;;;;;;31.68;40.06;100907.88;5030368;28;20430;-88
2023/07/21 09:16:32;;;;;;;0.20;0.20;;;;;;;31.61;39.26;100907.06;5030872;28;20037;-88
2023/07/21 09:18:58;;;;;;;0.20;0.20;;;;;;;31.60;39.71;100898.22;5013189;28;20040;-90
2023/07/21 09:21:23;;;;;;;0.20;0.20;;;;;;;31.68;39.04;100908.69;5013061;28;20034;-90
2023/07/21 09:23:49;;;;;;;0.20;0.20;;;;;;;31.65;39.45;100898.41;5033379;28;20538;-86
2023/07/21 09:26:22;;;;;;;0.20;0.20;;;;;;;32.02;39.00;100904.16;5030931;28;20481;-86
2023/07/21 09:28:47;;;;;;;0.20;0.20;;;;;;;32.09;39.26;100910.31;5010444;28;20120;-84
2023/07/21 09:31:13;;;;;;;0.20;0.20;;;;;;;32.08;38.53;100905.19;5030001;28;20037;-86
2023/07/21 09:33:45;;;;;;;0.20;0.20;;;;;;;32.12;39.15;100904.53;5013788;28;20116;-88
2023/07/21 09:36:15;;;;;;;0.20;0.20;;;;;;;32.10;39.04;100895.91;4998150;28;20025;-84
2023/07/21 09:38:41;;;;;;;0.20;0.20;;;;;;;32.03;38.68;100897.75;5007784;28;20057;-89
2023/07/21 09:41:10;;;;;;;0.20;0.20;;;;;;;32.15;38.16;100900.63;5007114;28;20152;-89
2023/07/21 09:43:36;;;;;;;0.20;0.20;;;;;;;32.53;37.21;100906.06;5009240;28;20083;-86
2023/07/21 09:46:02;;;;;;;0.20;0.20;;;;;;;32.64;35.32;100892.03;5014376;28;20049;-87
2023/07/21 09:48:29;;;;;;;0.20;0.20;;;;;;;32.43;35.44;100878.94;5014558;28;20025;-87
2023/07/21 09:50:59;;;;;;;0.20;0.20;;;;;;;32.93;34.85;100895.19;4998414;28;20025;-83
2023/07/21 09:53:30;;;;;;;0.20;0.20;;;;;;;33.21;33.75;100886.75;5014330;28;20064;-86
2023/07/21 09:55:57;;;;;;;0.20;0.20;;;;;;;33.20;34.62;100883.25;5016039;28;20037;-89
2023/07/21 09:58:24;;;;;;;0.20;0.20;;;;;;;33.28;35.12;100872.28;5014065;28;20113;-90
2023/07/21 10:00:50;;;;;;;0.20;0.20;;;;;;;33.26;35.29;100869.00;5034844;28;20059;-89
2023/07/21 10:03:16;;;;;;;0.20;0.20;;;;;;;33.41;35.72;100870.56;5017530;28;20024;-88
2023/07/21 10:05:42;;;;;;;0.20;0.20;;;;;;;33.47;35.12;100872.38;5016795;28;20525;-84
2023/07/21 10:08:09;;;;;;;0.20;0.20;;;;;;;33.56;35.21;100876.41;5017745;28;20029;-91
2023/07/21 10:10:35;;;;;;;0.20;0.20;;;;;;;33.49;35.43;100856.88;5033738;28;20025;-87
2023/07/21 10:13:04;;;;;;;0.20;0.20;;;;;;;33.73;35.67;100873.97;5051756;28;20024;-90
2023/07/21 10:15:30;;;;;;;0.20;0.20;;;;;;;33.73;36.14;100871.28;5017347;28;20028;-90
2023/07/21 10:18:00;;;;;;;0.20;0.20;;;;;;;33.43;36.27;100881.88;5017633;28;20480;-88
2023/07/21 10:20:43;;;;;;;0.20;0.20;;;;;;;33.28;36.25;100872.28;5020423;28;20135;-90
2023/07/21 10:23:10;;;;;;;0.20;0.20;;;;;;;33.59;35.32;100878.66;5002864;28;20028;-91
2023/07/21 10:25:46;;;;;;;0.20;0.20;;;;;;;33.70;36.07;100879.78;5035633;28;20032;-87
2023/07/21 10:28:11;;;;;;;0.20;0.20;;;;;;;33.51;35.52;100860.16;5052955;28;20107;-88
2023/07/21 10:30:37;;;;;;;0.20;0.20;;;;;;;33.81;35.29;100879.06;5018904;28;20033;-91
2023/07/21 10:33:20;;;;;;;0.20;0.20;;;;;;;33.55;35.66;100862.19;5018424;28;20111;-87
2023/07/21 10:35:46;;;;;;;0.20;0.20;;;;;;;33.86;36.00;100874.69;5004323;28;20079;-90
2023/07/21 10:38:15;;;;;;;0.20;0.20;;;;;;;34.05;35.33;100886.28;5021058;28;20059;-90
2023/07/21 10:40:41;;;;;;;0.20;0.20;;;;;;;33.94;34.98;100871.72;5017247;28;20045;-91
2023/07/21 10:43:06;;;;;;;0.20;0.20;;;;;;;34.16;35.22;100873.97;5015512;28;20050;-95
2023/07/21 10:45:32;;;;;;;0.20;0.20;;;;;;;34.41;35.25;100872.03;5016196;28;20084;-89
2023/07/21 10:48:11;;;;;;;0.20;0.20;;;;;;;34.24;34.67;100844.13;5017507;28;20032;-89
2023/07/21 10:50:40;;;;;;;0.20;0.20;;;;;;;34.46;34.97;100872.19;5035032;28;20091;-87
2023/07/21 10:53:05;;;;;;;0.20;0.20;;;;;;;34.39;34.98;100847.25;5052449;28;20117;-89
2023/07/21 10:55:31;;;;;;;0.20;0.20;;;;;;;34.61;34.33;100860.19;5023916;28;20108;-87
2023/07/21 10:57:57;;;;;;;0.20;0.20;;;;;;;34.84;34.46;100870.22;4999605;28;20454;-94
2023/07/21 11:00:22;;;;;;;0.20;0.20;;;;;;;34.98;33.42;100869.00;5007802;28;20063;-89
2023/07/21 11:02:54;;;;;;;0.20;0.20;;;;;;;35.08;34.26;100855.81;5034747;28;20037;-93
2023/07/21 11:05:19;;;;;;;;;;;;;;;35.27;32.51;100864.63;5036585;28;20032;-85
2023/07/21 11:07:44;;;;;;;0.20;0.20;;;;;;;34.99;31.87;100867.94;5034860;28;19913;-85
2023/07/21 11:10:10;;;;;;;0.20;0.20;;;;;;;34.75;33.25;100864.34;5017606;28;20029;-93
2023/07/21 11:12:36;;;;;;;0.20;0.20;;;;;;;34.93;34.21;100852.75;5001673;28;20036;-86
2023/07/21 11:15:03;;;;;;;0.20;0.20;;;;;;;34.89;33.20;100855.06;5030765;28;20021;-93
2023/07/21 11:17:31;;;;;;;0.20;0.20;;;;;;;34.89;32.71;100847.00;5014422;28;20029;-91
2023/07/21 11:20:10;;;;;;;0.20;0.20;;;;;;;34.99;31.96;100857.19;5026962;28;20034;-87
2023/07/21 11:22:36;;;;;;;0.20;0.20;;;;;;;35.10;32.16;100844.81;5008844;28;20025;-88